sensor_id;sensor_type;location;lat;lon;timestamp;temperature;humidity
580;DHT22;276;48.392;9.950;2024-03-23T00:54:12;13.50;95.30
580;DHT22;276;48.392;9.950;2024-03-23T00:56:37;13.60;95.30
580;DHT22;276;48.392;9.950;2024-03-23T00:59:03;13.60;95.30
580;DHT22;276;48.392;9.950;2024-03-23T01:01:33;13.60;95.40
580;DHT22;276;48.392;9.950;2024-03-23T01:03:58;13.50;95.30
580;DHT22;276;48.392;9.950;2024-03-23T01:06:24;13.50;95.40
580;DHT22;276;48.392;9.950;2024-03-23T01:08:50;13.50;95.50
580;DHT22;276;48.392;9.950;2024-03-23T01:11:15;13.50;95.60
580;DHT22;276;48.392;9.950;2024-03-23T01:13:41;13.50;95.70
580;DHT22;276;48.392;9.950;2024-03-23T01:16:09;13.50;95.60
580;DHT22;276;48.392;9.950;2024-03-23T01:18:34;13.50;95.50
580;DHT22;276;48.392;9.950;2024-03-23T01:21:02;13.40;95.50
580;DHT22;276;48.392;9.950;2024-03-23T01:23:28;13.40;95.60
580;DHT22;276;48.392;9.950;2024-03-23T01:25:55;13.40;95.60
580;DHT22;276;48.392;9.950;2024-03-23T01:28:21;13.40;95.70
580;DHT22;276;48.392;9.950;2024-03-23T01:30:49;13.30;95.80
580;DHT22;276;48.392;9.950;2024-03-23T01:33:15;13.30;96.00
580;DHT22;276;48.392;9.950;2024-03-23T01:35:41;13.20;96.10
580;DHT22;276;48.392;9.950;2024-03-23T01:38:08;13.20;96.20
580;DHT22;276;48.392;9.950;2024-03-23T01:40:36;13.20;96.20
580;DHT22;276;48.392;9.950;2024-03-23T01:43:07;13.20;96.20
580;DHT22;276;48.392;9.950;2024-03-23T01:45:33;13.20;96.30
580;DHT22;276;48.392;9.950;2024-03-23T01:48:04;13.10;96.40
580;DHT22;276;48.392;9.950;2024-03-23T01:50:32;13.10;96.50
580;DHT22;276;48.392;9.950;2024-03-23T01:53:01;13.10;96.60
580;DHT22;276;48.392;9.950;2024-03-23T01:55:29;13.10;96.70
580;DHT22;276;48.392;9.950;2024-03-23T01:57:59;13.10;96.80
580;DHT22;276;48.392;9.950;2024-03-23T02:00:27;13.10;96.80
580;DHT22;276;48.392;9.950;2024-03-23T02:02:55;13.10;96.80
580;DHT22;276;48.392;9.950;2024-03-23T02:05:22;13.10;96.80
580;DHT22;276;48.392;9.950;2024-03-23T02:07:53;13.10;96.90
580;DHT22;276;48.392;9.950;2024-03-23T02:10:21;13.20;97.00
580;DHT22;276;48.392;9.950;2024-03-23T02:12:49;13.20;97.30
580;DHT22;276;48.392;9.950;2024-03-23T02:15:19;13.20;97.10
580;DHT22;276;48.392;9.950;2024-03-23T02:17:49;13.10;97.00
580;DHT22;276;48.392;9.950;2024-03-23T02:20:15;13.20;97.20
580;DHT22;276;48.392;9.950;2024-03-23T02:22:40;13.20;97.20
580;DHT22;276;48.392;9.950;2024-03-23T02:25:08;13.20;97.20
580;DHT22;276;48.392;9.950;2024-03-23T02:27:36;13.20;97.20
580;DHT22;276;48.392;9.950;2024-03-23T02:30:04;13.20;97.30
580;DHT22;276;48.392;9.950;2024-03-23T02:32:32;13.20;97.30
580;DHT22;276;48.392;9.950;2024-03-23T02:35:00;13.20;97.30
580;DHT22;276;48.392;9.950;2024-03-23T02:37:28;13.20;97.30
580;DHT22;276;48.392;9.950;2024-03-23T02:39:54;13.20;97.50
580;DHT22;276;48.392;9.950;2024-03-23T02:42:22;13.20;97.50
580;DHT22;276;48.392;9.950;2024-03-23T02:44:48;13.20;97.50
580;DHT22;276;48.392;9.950;2024-03-23T02:47:18;13.20;97.50
580;DHT22;276;48.392;9.950;2024-03-23T02:49:46;13.20;97.50
580;DHT22;276;48.392;9.950;2024-03-23T02:52:11;13.20;97.60
580;DHT22;276;48.392;9.950;2024-03-23T02:54:39;13.20;97.60
580;DHT22;276;48.392;9.950;2024-03-23T02:57:10;13.20;97.70
580;DHT22;276;48.392;9.950;2024-03-23T02:59:38;13.20;97.70
580;DHT22;276;48.392;9.950;2024-03-23T03:02:07;13.20;97.70
580;DHT22;276;48.392;9.950;2024-03-23T03:04:32;13.20;97.70
580;DHT22;276;48.392;9.950;2024-03-23T03:07:00;13.20;97.70
580;DHT22;276;48.392;9.950;2024-03-23T03:09:29;13.30;97.70
580;DHT22;276;48.392;9.950;2024-03-23T03:11:58;13.30;97.70
580;DHT22;276;48.392;9.950;2024-03-23T03:14:24;13.20;97.70
580;DHT22;276;48.392;9.950;2024-03-23T03:16:54;13.20;97.80
580;DHT22;276;48.392;9.950;2024-03-23T03:19:24;13.20;97.90
580;DHT22;276;48.392;9.950;2024-03-23T03:21:50;13.20;97.80
580;DHT22;276;48.392;9.950;2024-03-23T03:24:19;13.30;97.90
580;DHT22;276;48.392;9.950;2024-03-23T03:26:47;13.30;97.80
580;DHT22;276;48.392;9.950;2024-03-23T03:29:13;13.30;97.80
580;DHT22;276;48.392;9.950;2024-03-23T03:31:43;13.40;97.80
580;DHT22;276;48.392;9.950;2024-03-23T03:34:11;13.40;97.80
580;DHT22;276;48.392;9.950;2024-03-23T03:36:37;13.40;97.80
580;DHT22;276;48.392;9.950;2024-03-23T03:39:05;13.40;97.90
580;DHT22;276;48.392;9.950;2024-03-23T03:41:33;13.30;97.90
580;DHT22;276;48.392;9.950;2024-03-23T03:44:03;13.30;97.90
580;DHT22;276;48.392;9.950;2024-03-23T03:46:29;13.30;98.00
580;DHT22;276;48.392;9.950;2024-03-23T03:48:55;13.30;98.10
580;DHT22;276;48.392;9.950;2024-03-23T03:51:20;13.30;98.10
580;DHT22;276;48.392;9.950;2024-03-23T03:53:46;13.30;98.20
580;DHT22;276;48.392;9.950;2024-03-23T03:56:14;13.30;98.20
580;DHT22;276;48.392;9.950;2024-03-23T03:58:40;13.30;98.30
580;DHT22;276;48.392;9.950;2024-03-23T04:01:05;13.30;98.40
580;DHT22;276;48.392;9.950;2024-03-23T04:03:35;13.20;98.40
580;DHT22;276;48.392;9.950;2024-03-23T04:06:07;13.10;98.50
580;DHT22;276;48.392;9.950;2024-03-23T04:08:37;13.10;98.70
580;DHT22;276;48.392;9.950;2024-03-23T04:11:05;13.00;98.70
580;DHT22;276;48.392;9.950;2024-03-23T04:13:31;13.00;98.90
580;DHT22;276;48.392;9.950;2024-03-23T04:15:59;13.00;99.00
580;DHT22;276;48.392;9.950;2024-03-23T04:18:27;12.90;99.00
580;DHT22;276;48.392;9.950;2024-03-23T04:20:53;12.80;99.10
580;DHT22;276;48.392;9.950;2024-03-23T04:23:18;12.80;99.20
580;DHT22;276;48.392;9.950;2024-03-23T04:25:46;12.80;99.30
580;DHT22;276;48.392;9.950;2024-03-23T04:28:14;12.80;99.30
580;DHT22;276;48.392;9.950;2024-03-23T04:30:47;12.70;99.30
580;DHT22;276;48.392;9.950;2024-03-23T04:33:12;12.70;99.40
580;DHT22;276;48.392;9.950;2024-03-23T04:35:38;12.70;99.50
580;DHT22;276;48.392;9.950;2024-03-23T04:38:04;12.70;99.60
580;DHT22;276;48.392;9.950;2024-03-23T04:40:29;12.60;99.70
580;DHT22;276;48.392;9.950;2024-03-23T04:42:59;12.70;99.80
580;DHT22;276;48.392;9.950;2024-03-23T04:45:26;12.60;99.80
580;DHT22;276;48.392;9.950;2024-03-23T04:47:58;12.60;99.90
580;DHT22;276;48.392;9.950;2024-03-23T04:50:26;12.60;99.90
580;DHT22;276;48.392;9.950;2024-03-23T04:52:52;12.60;99.90
580;DHT22;276;48.392;9.950;2024-03-23T04:55:19;12.60;99.90
580;DHT22;276;48.392;9.950;2024-03-23T04:57:49;12.60;99.90
580;DHT22;276;48.392;9.950;2024-03-23T05:00:15;12.60;99.90
580;DHT22;276;48.392;9.950;2024-03-23T05:02:46;12.60;99.90
580;DHT22;276;48.392;9.950;2024-03-23T05:05:14;12.60;99.90
580;DHT22;276;48.392;9.950;2024-03-23T05:07:40;12.60;99.90
580;DHT22;276;48.392;9.950;2024-03-23T05:10:09;12.60;99.90
580;DHT22;276;48.392;9.950;2024-03-23T05:12:39;12.60;99.90
580;DHT22;276;48.392;9.950;2024-03-23T05:15:07;12.60;99.90
580;DHT22;276;48.392;9.950;2024-03-23T05:17:33;12.60;99.90
580;DHT22;276;48.392;9.950;2024-03-23T05:19:59;12.60;99.90
580;DHT22;276;48.392;9.950;2024-03-23T05:22:27;12.50;99.90
580;DHT22;276;48.392;9.950;2024-03-23T05:25:01;12.50;99.90
580;DHT22;276;48.392;9.950;2024-03-23T05:27:33;12.50;99.90
580;DHT22;276;48.392;9.950;2024-03-23T05:29:58;12.50;99.90
580;DHT22;276;48.392;9.950;2024-03-23T05:32:24;12.40;99.90
580;DHT22;276;48.392;9.950;2024-03-23T05:34:50;12.40;99.90
580;DHT22;276;48.392;9.950;2024-03-23T05:37:21;12.40;99.90
580;DHT22;276;48.392;9.950;2024-03-23T05:39:47;12.40;99.90
580;DHT22;276;48.392;9.950;2024-03-23T05:42:16;12.40;99.90
580;DHT22;276;48.392;9.950;2024-03-23T05:44:44;12.40;99.90
580;DHT22;276;48.392;9.950;2024-03-23T05:47:10;12.50;99.90
580;DHT22;276;48.392;9.950;2024-03-23T05:49:37;12.50;99.90
580;DHT22;276;48.392;9.950;2024-03-23T05:52:02;12.60;99.90
580;DHT22;276;48.392;9.950;2024-03-23T05:54:29;12.60;99.90
580;DHT22;276;48.392;9.950;2024-03-23T05:56:58;12.60;99.90
580;DHT22;276;48.392;9.950;2024-03-23T05:59:24;12.60;99.90
580;DHT22;276;48.392;9.950;2024-03-23T06:01:52;12.60;99.90
580;DHT22;276;48.392;9.950;2024-03-23T06:04:18;12.70;99.90
580;DHT22;276;48.392;9.950;2024-03-23T06:06:45;12.70;99.90
580;DHT22;276;48.392;9.950;2024-03-23T06:09:10;12.80;99.90
580;DHT22;276;48.392;9.950;2024-03-23T06:11:36;12.80;99.90
580;DHT22;276;48.392;9.950;2024-03-23T06:14:04;12.80;99.90
580;DHT22;276;48.392;9.950;2024-03-23T06:16:32;12.80;99.90
580;DHT22;276;48.392;9.950;2024-03-23T06:18:57;12.80;99.90
580;DHT22;276;48.392;9.950;2024-03-23T06:21:26;12.80;99.90
580;DHT22;276;48.392;9.950;2024-03-23T06:23:53;12.90;99.90
580;DHT22;276;48.392;9.950;2024-03-23T06:26:24;12.90;99.90
580;DHT22;276;48.392;9.950;2024-03-23T06:28:52;12.80;99.90
580;DHT22;276;48.392;9.950;2024-03-23T06:31:21;12.80;99.90
580;DHT22;276;48.392;9.950;2024-03-23T06:33:47;12.80;99.90
580;DHT22;276;48.392;9.950;2024-03-23T06:36:14;12.80;99.90
580;DHT22;276;48.392;9.950;2024-03-23T06:38:40;12.80;99.90
580;DHT22;276;48.392;9.950;2024-03-23T06:41:06;12.70;99.90
580;DHT22;276;48.392;9.950;2024-03-23T06:43:31;12.80;99.90
580;DHT22;276;48.392;9.950;2024-03-23T06:46:00;12.70;99.90
580;DHT22;276;48.392;9.950;2024-03-23T06:48:25;12.80;99.90
580;DHT22;276;48.392;9.950;2024-03-23T06:50:59;12.80;99.90
580;DHT22;276;48.392;9.950;2024-03-23T06:53:27;12.90;99.90
580;DHT22;276;48.392;9.950;2024-03-23T06:55:53;12.80;99.90
580;DHT22;276;48.392;9.950;2024-03-23T06:58:20;12.90;99.90
580;DHT22;276;48.392;9.950;2024-03-23T07:00:46;12.80;99.90
580;DHT22;276;48.392;9.950;2024-03-23T07:03:11;12.80;99.90
580;DHT22;276;48.392;9.950;2024-03-23T07:05:37;12.80;99.90
580;DHT22;276;48.392;9.950;2024-03-23T07:08:08;12.80;99.90
580;DHT22;276;48.392;9.950;2024-03-23T07:10:34;12.90;99.90
580;DHT22;276;48.392;9.950;2024-03-23T07:13:01;12.90;99.90
580;DHT22;276;48.392;9.950;2024-03-23T07:15:26;12.80;99.90
580;DHT22;276;48.392;9.950;2024-03-23T07:17:57;12.90;99.90
580;DHT22;276;48.392;9.950;2024-03-23T07:20:22;12.90;99.90
580;DHT22;276;48.392;9.950;2024-03-23T07:22:48;12.90;99.90
580;DHT22;276;48.392;9.950;2024-03-23T07:25:14;12.80;99.90
580;DHT22;276;48.392;9.950;2024-03-23T07:27:40;12.90;99.90
580;DHT22;276;48.392;9.950;2024-03-23T07:30:06;12.80;99.90
580;DHT22;276;48.392;9.950;2024-03-23T07:32:32;12.80;99.90
580;DHT22;276;48.392;9.950;2024-03-23T07:35:00;12.70;99.90
580;DHT22;276;48.392;9.950;2024-03-23T07:37:28;12.70;99.90
580;DHT22;276;48.392;9.950;2024-03-23T07:39:56;12.80;99.90
580;DHT22;276;48.392;9.950;2024-03-23T07:42:23;12.70;99.90
580;DHT22;276;48.392;9.950;2024-03-23T07:44:48;12.70;99.90
580;DHT22;276;48.392;9.950;2024-03-23T07:47:17;12.70;99.90
580;DHT22;276;48.392;9.950;2024-03-23T07:49:42;12.70;99.90
580;DHT22;276;48.392;9.950;2024-03-23T07:52:08;12.60;99.90
580;DHT22;276;48.392;9.950;2024-03-23T07:54:33;12.70;99.90
580;DHT22;276;48.392;9.950;2024-03-23T07:56:59;12.60;99.90
580;DHT22;276;48.392;9.950;2024-03-23T07:59:25;12.60;99.90
580;DHT22;276;48.392;9.950;2024-03-23T08:01:53;12.50;99.90
580;DHT22;276;48.392;9.950;2024-03-23T08:04:19;12.60;99.90
580;DHT22;276;48.392;9.950;2024-03-23T08:06:44;12.50;99.90
580;DHT22;276;48.392;9.950;2024-03-23T08:09:10;12.50;99.90
580;DHT22;276;48.392;9.950;2024-03-23T08:11:37;12.50;99.90
580;DHT22;276;48.392;9.950;2024-03-23T08:14:04;12.50;99.90
580;DHT22;276;48.392;9.950;2024-03-23T08:16:31;12.40;99.90
580;DHT22;276;48.392;9.950;2024-03-23T08:18:59;12.40;99.90
580;DHT22;276;48.392;9.950;2024-03-23T08:21:27;12.40;99.90
580;DHT22;276;48.392;9.950;2024-03-23T08:23:55;12.50;99.90
580;DHT22;276;48.392;9.950;2024-03-23T08:26:24;12.50;99.90
580;DHT22;276;48.392;9.950;2024-03-23T08:28:52;12.50;99.90
580;DHT22;276;48.392;9.950;2024-03-23T08:31:17;12.50;99.90
580;DHT22;276;48.392;9.950;2024-03-23T08:33:43;12.60;99.90
580;DHT22;276;48.392;9.950;2024-03-23T08:36:15;12.60;99.90
580;DHT22;276;48.392;9.950;2024-03-23T08:38:40;12.70;99.90
580;DHT22;276;48.392;9.950;2024-03-23T08:41:07;12.70;99.90
580;DHT22;276;48.392;9.950;2024-03-23T08:43:36;12.80;99.90
580;DHT22;276;48.392;9.950;2024-03-23T08:46:09;12.80;99.90
580;DHT22;276;48.392;9.950;2024-03-23T08:48:39;12.80;99.90
580;DHT22;276;48.392;9.950;2024-03-23T08:51:08;12.80;99.90
580;DHT22;276;48.392;9.950;2024-03-23T08:53:34;12.80;99.90
580;DHT22;276;48.392;9.950;2024-03-23T08:56:04;12.90;99.90
580;DHT22;276;48.392;9.950;2024-03-23T08:58:33;13.00;99.90
580;DHT22;276;48.392;9.950;2024-03-23T09:01:08;13.00;99.90
580;DHT22;276;48.392;9.950;2024-03-23T09:03:34;13.10;99.90
580;DHT22;276;48.392;9.950;2024-03-23T09:06:00;13.10;99.90
580;DHT22;276;48.392;9.950;2024-03-23T09:08:26;13.00;99.90
580;DHT22;276;48.392;9.950;2024-03-23T09:10:52;12.90;99.90
580;DHT22;276;48.392;9.950;2024-03-23T09:13:18;12.80;99.90
580;DHT22;276;48.392;9.950;2024-03-23T09:15:51;12.80;99.90
580;DHT22;276;48.392;9.950;2024-03-23T09:18:17;12.80;99.90
580;DHT22;276;48.392;9.950;2024-03-23T09:20:43;12.80;99.90
580;DHT22;276;48.392;9.950;2024-03-23T09:23:09;12.80;99.90
580;DHT22;276;48.392;9.950;2024-03-23T09:25:42;12.80;99.90
580;DHT22;276;48.392;9.950;2024-03-23T09:28:10;12.80;99.90
580;DHT22;276;48.392;9.950;2024-03-23T09:30:36;12.80;99.20
580;DHT22;276;48.392;9.950;2024-03-23T09:33:10;12.80;98.80
580;DHT22;276;48.392;9.950;2024-03-23T09:35:37;12.90;98.80
580;DHT22;276;48.392;9.950;2024-03-23T09:38:06;13.10;98.80
580;DHT22;276;48.392;9.950;2024-03-23T09:40:40;13.20;98.20
580;DHT22;276;48.392;9.950;2024-03-23T09:43:06;13.30;97.30
580;DHT22;276;48.392;9.950;2024-03-23T09:45:39;13.40;97.60
580;DHT22;276;48.392;9.950;2024-03-23T09:48:06;13.60;97.20
580;DHT22;276;48.392;9.950;2024-03-23T09:50:32;13.70;96.30
580;DHT22;276;48.392;9.950;2024-03-23T09:53:02;13.90;95.80
580;DHT22;276;48.392;9.950;2024-03-23T09:55:28;13.90;94.80
580;DHT22;276;48.392;9.950;2024-03-23T09:57:53;14.00;94.90
580;DHT22;276;48.392;9.950;2024-03-23T10:00:21;14.00;95.00
580;DHT22;276;48.392;9.950;2024-03-23T10:02:47;14.00;94.80
580;DHT22;276;48.392;9.950;2024-03-23T10:05:20;14.10;93.10
580;DHT22;276;48.392;9.950;2024-03-23T10:07:52;14.10;93.20
580;DHT22;276;48.392;9.950;2024-03-23T10:10:18;14.20;93.20
580;DHT22;276;48.392;9.950;2024-03-23T10:12:46;14.40;93.40
580;DHT22;276;48.392;9.950;2024-03-23T10:15:23;14.60;93.60
580;DHT22;276;48.392;9.950;2024-03-23T10:17:49;14.80;92.70
580;DHT22;276;48.392;9.950;2024-03-23T10:20:22;14.80;91.50
580;DHT22;276;48.392;9.950;2024-03-23T10:22:49;14.80;91.50
580;DHT22;276;48.392;9.950;2024-03-23T10:25:18;14.70;91.20
580;DHT22;276;48.392;9.950;2024-03-23T10:27:58;14.50;91.30
580;DHT22;276;48.392;9.950;2024-03-23T10:30:25;14.50;91.40
580;DHT22;276;48.392;9.950;2024-03-23T10:33:09;14.40;91.00
580;DHT22;276;48.392;9.950;2024-03-23T10:35:36;14.20;91.00
580;DHT22;276;48.392;9.950;2024-03-23T10:38:07;14.10;91.30
580;DHT22;276;48.392;9.950;2024-03-23T10:40:36;14.00;91.60
580;DHT22;276;48.392;9.950;2024-03-23T10:43:06;14.00;91.80
580;DHT22;276;48.392;9.950;2024-03-23T10:45:35;14.00;91.90
580;DHT22;276;48.392;9.950;2024-03-23T10:48:01;14.10;91.80
580;DHT22;276;48.392;9.950;2024-03-23T10:50:31;14.20;92.00
580;DHT22;276;48.392;9.950;2024-03-23T10:52:58;14.20;92.00
580;DHT22;276;48.392;9.950;2024-03-23T10:55:27;14.20;91.80
580;DHT22;276;48.392;9.950;2024-03-23T10:57:55;14.20;91.80
580;DHT22;276;48.392;9.950;2024-03-23T11:00:22;14.20;92.00
580;DHT22;276;48.392;9.950;2024-03-23T11:02:51;14.30;91.90
580;DHT22;276;48.392;9.950;2024-03-23T11:07:54;14.40;91.50
580;DHT22;276;48.392;9.950;2024-03-23T11:10:30;14.40;91.40
580;DHT22;276;48.392;9.950;2024-03-23T11:13:24;14.40;91.40
580;DHT22;276;48.392;9.950;2024-03-23T11:15:50;14.40;91.30
580;DHT22;276;48.392;9.950;2024-03-23T11:18:21;14.40;91.70
580;DHT22;276;48.392;9.950;2024-03-23T11:20:49;14.50;91.50
580;DHT22;276;48.392;9.950;2024-03-23T11:23:27;14.60;91.10
580;DHT22;276;48.392;9.950;2024-03-23T11:25:53;14.60;88.80
580;DHT22;276;48.392;9.950;2024-03-23T11:28:19;14.40;86.70
580;DHT22;276;48.392;9.950;2024-03-23T11:30:49;14.40;86.70
580;DHT22;276;48.392;9.950;2024-03-23T11:33:15;14.40;86.50
580;DHT22;276;48.392;9.950;2024-03-23T11:35:44;14.30;83.80
580;DHT22;276;48.392;9.950;2024-03-23T11:38:11;14.40;84.10
580;DHT22;276;48.392;9.950;2024-03-23T11:40:44;14.40;80.90
580;DHT22;276;48.392;9.950;2024-03-23T11:43:19;14.50;81.60
580;DHT22;276;48.392;9.950;2024-03-23T11:45:49;14.70;80.10
580;DHT22;276;48.392;9.950;2024-03-23T11:48:22;14.70;79.70
580;DHT22;276;48.392;9.950;2024-03-23T11:50:50;14.80;77.60
580;DHT22;276;48.392;9.950;2024-03-23T11:53:22;14.90;79.50
580;DHT22;276;48.392;9.950;2024-03-23T11:55:52;15.00;80.60
580;DHT22;276;48.392;9.950;2024-03-23T11:58:22;15.10;81.10
580;DHT22;276;48.392;9.950;2024-03-23T12:00:58;15.10;79.40
580;DHT22;276;48.392;9.950;2024-03-23T12:03:26;15.00;80.30
580;DHT22;276;48.392;9.950;2024-03-23T12:05:53;14.70;80.10
580;DHT22;276;48.392;9.950;2024-03-23T12:10:48;14.40;79.70
580;DHT22;276;48.392;9.950;2024-03-23T12:13:18;14.30;79.30
580;DHT22;276;48.392;9.950;2024-03-23T12:15:50;14.30;79.30
580;DHT22;276;48.392;9.950;2024-03-23T12:18:16;14.40;79.00
580;DHT22;276;48.392;9.950;2024-03-23T12:20:42;14.50;79.40
580;DHT22;276;48.392;9.950;2024-03-23T12:23:12;14.60;79.10
580;DHT22;276;48.392;9.950;2024-03-23T12:25:39;14.70;80.10
580;DHT22;276;48.392;9.950;2024-03-23T12:28:07;14.80;81.40
580;DHT22;276;48.392;9.950;2024-03-23T12:30:38;14.90;79.50
580;DHT22;276;48.392;9.950;2024-03-23T12:33:06;14.90;78.90
580;DHT22;276;48.392;9.950;2024-03-23T12:35:32;14.80;78.20
580;DHT22;276;48.392;9.950;2024-03-23T12:37:58;14.70;77.30
580;DHT22;276;48.392;9.950;2024-03-23T12:40:28;14.50;77.80
580;DHT22;276;48.392;9.950;2024-03-23T12:42:54;14.40;78.50
580;DHT22;276;48.392;9.950;2024-03-23T12:45:24;14.30;79.40
580;DHT22;276;48.392;9.950;2024-03-23T12:47:52;14.20;79.20
580;DHT22;276;48.392;9.950;2024-03-23T12:50:19;14.20;80.50
580;DHT22;276;48.392;9.950;2024-03-23T12:52:50;14.20;80.90
580;DHT22;276;48.392;9.950;2024-03-23T12:55:15;14.20;81.60
580;DHT22;276;48.392;9.950;2024-03-23T12:57:41;14.20;83.00
580;DHT22;276;48.392;9.950;2024-03-23T13:00:09;14.30;83.30
580;DHT22;276;48.392;9.950;2024-03-23T13:02:41;14.20;82.30
580;DHT22;276;48.392;9.950;2024-03-23T13:05:09;14.20;82.30
580;DHT22;276;48.392;9.950;2024-03-23T13:07:39;14.20;83.30
580;DHT22;276;48.392;9.950;2024-03-23T13:10:07;14.30;83.40
580;DHT22;276;48.392;9.950;2024-03-23T13:12:34;14.20;83.10
580;DHT22;276;48.392;9.950;2024-03-23T13:15:00;14.30;83.30
580;DHT22;276;48.392;9.950;2024-03-23T13:17:27;14.20;83.20
580;DHT22;276;48.392;9.950;2024-03-23T13:19:55;14.20;83.70
580;DHT22;276;48.392;9.950;2024-03-23T13:22:23;14.20;84.40
580;DHT22;276;48.392;9.950;2024-03-23T13:24:51;14.20;85.00
580;DHT22;276;48.392;9.950;2024-03-23T13:27:17;14.30;85.00
580;DHT22;276;48.392;9.950;2024-03-23T13:29:46;14.30;85.70
580;DHT22;276;48.392;9.950;2024-03-23T13:32:12;14.20;84.60
580;DHT22;276;48.392;9.950;2024-03-23T13:34:38;14.20;84.60
580;DHT22;276;48.392;9.950;2024-03-23T13:37:04;14.20;83.20
580;DHT22;276;48.392;9.950;2024-03-23T13:39:30;14.20;83.90
580;DHT22;276;48.392;9.950;2024-03-23T13:41:56;14.20;84.20
580;DHT22;276;48.392;9.950;2024-03-23T13:44:22;14.20;84.10
580;DHT22;276;48.392;9.950;2024-03-23T13:46:47;14.20;83.70
580;DHT22;276;48.392;9.950;2024-03-23T13:51:52;14.00;83.70
580;DHT22;276;48.392;9.950;2024-03-23T13:54:20;13.90;84.50
580;DHT22;276;48.392;9.950;2024-03-23T13:56:48;13.90;84.80
580;DHT22;276;48.392;9.950;2024-03-23T13:59:14;13.80;85.00
580;DHT22;276;48.392;9.950;2024-03-23T14:01:40;13.70;84.90
580;DHT22;276;48.392;9.950;2024-03-23T14:04:08;13.70;84.60
580;DHT22;276;48.392;9.950;2024-03-23T14:06:36;13.70;85.30
580;DHT22;276;48.392;9.950;2024-03-23T14:09:01;13.60;85.70
580;DHT22;276;48.392;9.950;2024-03-23T14:11:29;13.50;84.70
580;DHT22;276;48.392;9.950;2024-03-23T14:13:57;13.50;84.90
580;DHT22;276;48.392;9.950;2024-03-23T14:16:22;13.40;85.80
580;DHT22;276;48.392;9.950;2024-03-23T14:18:48;13.40;86.80
580;DHT22;276;48.392;9.950;2024-03-23T14:21:14;13.50;86.30
580;DHT22;276;48.392;9.950;2024-03-23T14:23:42;13.40;85.30
580;DHT22;276;48.392;9.950;2024-03-23T14:26:07;13.50;84.80
580;DHT22;276;48.392;9.950;2024-03-23T14:28:36;13.50;84.90
580;DHT22;276;48.392;9.950;2024-03-23T14:31:02;13.60;84.30
580;DHT22;276;48.392;9.950;2024-03-23T14:33:38;13.50;83.30
580;DHT22;276;48.392;9.950;2024-03-23T14:36:14;13.40;80.40
580;DHT22;276;48.392;9.950;2024-03-23T14:38:46;13.30;81.20
580;DHT22;276;48.392;9.950;2024-03-23T14:41:17;13.30;81.40
580;DHT22;276;48.392;9.950;2024-03-23T14:43:44;13.30;81.10
580;DHT22;276;48.392;9.950;2024-03-23T14:48:41;13.30;80.70
580;DHT22;276;48.392;9.950;2024-03-23T14:51:10;13.30;81.00
580;DHT22;276;48.392;9.950;2024-03-23T14:53:39;13.30;81.20
580;DHT22;276;48.392;9.950;2024-03-23T14:56:06;13.20;81.80
580;DHT22;276;48.392;9.950;2024-03-23T14:58:35;13.10;81.90
580;DHT22;276;48.392;9.950;2024-03-23T15:01:06;13.10;82.40
580;DHT22;276;48.392;9.950;2024-03-23T15:03:38;13.10;81.70
580;DHT22;276;48.392;9.950;2024-03-23T15:06:05;13.00;81.60
580;DHT22;276;48.392;9.950;2024-03-23T15:08:31;12.90;82.00
580;DHT22;276;48.392;9.950;2024-03-23T15:11:00;12.90;81.30
580;DHT22;276;48.392;9.950;2024-03-23T15:13:28;12.80;81.60
580;DHT22;276;48.392;9.950;2024-03-23T15:15:56;12.80;80.30
580;DHT22;276;48.392;9.950;2024-03-23T15:18:22;12.70;80.40
580;DHT22;276;48.392;9.950;2024-03-23T15:21:01;12.70;80.90
580;DHT22;276;48.392;9.950;2024-03-23T15:23:38;12.80;81.70
580;DHT22;276;48.392;9.950;2024-03-23T15:26:04;12.90;82.30
580;DHT22;276;48.392;9.950;2024-03-23T15:28:31;12.90;82.70
580;DHT22;276;48.392;9.950;2024-03-23T15:31:04;12.90;82.90
580;DHT22;276;48.392;9.950;2024-03-23T15:33:30;12.80;82.90
580;DHT22;276;48.392;9.950;2024-03-23T15:36:01;12.90;82.50
580;DHT22;276;48.392;9.950;2024-03-23T15:38:27;12.80;82.30
580;DHT22;276;48.392;9.950;2024-03-23T15:40:53;12.80;82.50
580;DHT22;276;48.392;9.950;2024-03-23T15:43:19;12.90;83.20
580;DHT22;276;48.392;9.950;2024-03-23T15:45:54;12.80;84.00
580;DHT22;276;48.392;9.950;2024-03-23T15:48:19;12.70;84.10
580;DHT22;276;48.392;9.950;2024-03-23T15:50:51;12.70;84.70
580;DHT22;276;48.392;9.950;2024-03-23T15:53:20;12.70;84.70
580;DHT22;276;48.392;9.950;2024-03-23T15:55:56;12.60;85.10
580;DHT22;276;48.392;9.950;2024-03-23T15:58:23;12.50;85.50
580;DHT22;276;48.392;9.950;2024-03-23T16:01:00;12.50;87.50
580;DHT22;276;48.392;9.950;2024-03-23T16:03:29;12.30;91.60
580;DHT22;276;48.392;9.950;2024-03-23T16:05:57;12.20;92.80
580;DHT22;276;48.392;9.950;2024-03-23T16:08:23;11.90;93.60
580;DHT22;276;48.392;9.950;2024-03-23T16:10:49;11.70;94.20
580;DHT22;276;48.392;9.950;2024-03-23T16:13:18;11.60;94.20
580;DHT22;276;48.392;9.950;2024-03-23T16:18:26;11.30;94.30
580;DHT22;276;48.392;9.950;2024-03-23T16:20:56;11.10;95.00
580;DHT22;276;48.392;9.950;2024-03-23T16:23:22;11.10;95.60
580;DHT22;276;48.392;9.950;2024-03-23T16:25:52;11.00;95.80
580;DHT22;276;48.392;9.950;2024-03-23T16:28:31;11.00;96.70
580;DHT22;276;48.392;9.950;2024-03-23T16:33:31;11.00;96.90
580;DHT22;276;48.392;9.950;2024-03-23T16:38:27;11.00;97.20
580;DHT22;276;48.392;9.950;2024-03-23T16:43:36;10.90;97.40
580;DHT22;276;48.392;9.950;2024-03-23T16:46:08;10.90;97.30
580;DHT22;276;48.392;9.950;2024-03-23T16:48:43;10.90;97.30
580;DHT22;276;48.392;9.950;2024-03-23T16:51:10;10.90;97.10
580;DHT22;276;48.392;9.950;2024-03-23T16:53:36;10.90;97.50
580;DHT22;276;48.392;9.950;2024-03-23T16:56:05;11.00;97.60
580;DHT22;276;48.392;9.950;2024-03-23T16:58:36;11.00;97.60
580;DHT22;276;48.392;9.950;2024-03-23T17:03:33;11.00;97.10
580;DHT22;276;48.392;9.950;2024-03-23T17:06:03;11.00;96.60
580;DHT22;276;48.392;9.950;2024-03-23T17:08:29;10.90;96.70
580;DHT22;276;48.392;9.950;2024-03-23T17:11:02;10.80;96.80
580;DHT22;276;48.392;9.950;2024-03-23T17:13:33;10.80;96.80
580;DHT22;276;48.392;9.950;2024-03-23T17:15:59;10.80;96.60
580;DHT22;276;48.392;9.950;2024-03-23T17:18:27;10.70;96.60
580;DHT22;276;48.392;9.950;2024-03-23T17:20:55;10.70;96.60
580;DHT22;276;48.392;9.950;2024-03-23T17:23:28;10.60;96.70
580;DHT22;276;48.392;9.950;2024-03-23T17:25:54;10.60;96.70
580;DHT22;276;48.392;9.950;2024-03-23T17:28:19;10.50;96.90
580;DHT22;276;48.392;9.950;2024-03-23T17:30:45;10.50;97.40
580;DHT22;276;48.392;9.950;2024-03-23T17:33:12;10.50;97.70
580;DHT22;276;48.392;9.950;2024-03-23T17:35:42;10.40;97.80
580;DHT22;276;48.392;9.950;2024-03-23T17:38:08;10.30;97.90
580;DHT22;276;48.392;9.950;2024-03-23T17:40:36;10.20;98.00
580;DHT22;276;48.392;9.950;2024-03-23T17:43:02;10.20;98.20
580;DHT22;276;48.392;9.950;2024-03-23T17:45:27;10.20;98.10
580;DHT22;276;48.392;9.950;2024-03-23T17:47:53;10.20;97.90
580;DHT22;276;48.392;9.950;2024-03-23T17:50:20;10.10;97.90
580;DHT22;276;48.392;9.950;2024-03-23T17:52:46;10.10;97.90
580;DHT22;276;48.392;9.950;2024-03-23T17:55:12;10.00;97.80